createdAt,value
2022-10-03T00:00:23.464Z,96839.63
2022-10-03T00:03:14.666Z,96842.63
2022-10-03T00:05:55.455Z,96842.97
2022-10-03T00:08:59.158Z,96843.50
2022-10-03T00:11:53.057Z,96846.09
2022-10-03T00:14:39.334Z,96845.84
2022-10-03T00:17:35.001Z,96850.25
2022-10-03T00:20:32.564Z,96853.47
2022-10-03T00:23:17.906Z,96848.31
2022-10-03T00:26:25.520Z,96860.31
2022-10-03T00:29:02.494Z,96860.31
2022-10-03T00:31:42.661Z,96861.31
2022-10-03T00:34:26.541Z,96864.72
2022-10-03T00:37:14.652Z,96862.44
2022-10-03T00:39:44.125Z,96869.88
2022-10-03T00:42:50.273Z,96869.03
2022-10-03T00:45:41.904Z,96869.66
2022-10-03T00:48:25.189Z,96872.75
2022-10-03T00:51:07.362Z,96878.63
2022-10-03T00:53:33.784Z,96882.03
2022-10-03T00:56:25.166Z,96888.84
2022-10-03T00:59:14.661Z,96884.44
2022-10-03T01:01:48.312Z,96884.28
2022-10-03T01:04:40.292Z,96881.56
2022-10-03T01:07:40.273Z,96880.00
2022-10-03T01:10:18.245Z,96887.16
2022-10-03T01:12:44.957Z,96889.72
2022-10-03T01:15:30.952Z,96893.66
2022-10-03T01:18:14.887Z,96889.28
2022-10-03T01:21:10.486Z,96891.47
2022-10-03T01:23:55.339Z,96889.72
2022-10-03T01:26:38.175Z,96889.94
2022-10-03T01:29:39.884Z,96888.94
2022-10-03T01:32:21.474Z,96892.88
2022-10-03T01:35:12.801Z,96894.63
2022-10-03T01:38:25.713Z,96898.72
2022-10-03T01:41:15.077Z,96901.22
2022-10-03T01:43:51.059Z,96896.47
2022-10-03T01:46:34.962Z,96893.28
2022-10-03T01:49:39.016Z,96898.09
2022-10-03T01:52:19.570Z,96900.28
2022-10-03T01:55:08.789Z,96895.91
2022-10-03T01:57:41.111Z,96894.03
2022-10-03T02:00:17.725Z,96901.41
2022-10-03T02:03:04.924Z,96907.03
2022-10-03T02:05:55.318Z,96908.13
2022-10-03T02:08:51.747Z,96911.63
2022-10-03T02:11:54.786Z,96912.94
2022-10-03T02:14:52.209Z,96908.28
2022-10-03T02:17:44.961Z,96910.91
2022-10-03T02:20:23.850Z,96911.53
2022-10-03T02:22:53.990Z,96920.56
2022-10-03T02:25:40.501Z,96919.78
2022-10-03T02:28:30.410Z,96931.88
2022-10-03T02:31:06.302Z,96936.59
2022-10-03T02:33:41.604Z,96926.06
2022-10-03T02:36:27.891Z,96936.19
2022-10-03T02:39:06.536Z,96941.78
2022-10-03T02:41:39.436Z,96944.28
2022-10-03T02:44:27.183Z,96934.28
2022-10-03T02:47:30.583Z,96944.94
2022-10-03T02:49:57.043Z,96947.75
2022-10-03T02:52:26.203Z,96951.06
2022-10-03T02:54:52.620Z,96951.06
2022-10-03T02:57:44.055Z,96950.41
2022-10-03T03:00:50.684Z,96955.56
2022-10-03T03:03:57.448Z,96953.78
2022-10-03T03:06:45.625Z,96957.03
2022-10-03T03:09:33.815Z,96962.41
2022-10-03T03:12:28.521Z,96958.47
2022-10-03T03:15:22.813Z,96967.28
2022-10-03T03:18:10.117Z,96967.19
2022-10-03T03:21:00.942Z,96975.47
2022-10-03T03:23:36.440Z,96973.13
2022-10-03T03:26:11.955Z,96970.06
2022-10-03T03:28:50.596Z,96964.66
2022-10-03T03:31:45.798Z,96980.59
2022-10-03T03:34:12.306Z,96974.69
2022-10-03T03:36:55.714Z,96985.88
2022-10-03T03:39:54.715Z,96986.97
2022-10-03T03:42:30.304Z,96983.25
2022-10-03T03:45:13.473Z,96990.06
2022-10-03T03:47:46.309Z,96993.47
2022-10-03T03:50:28.042Z,96989.41
2022-10-03T03:53:05.771Z,96985.81
2022-10-03T03:55:46.217Z,96986.81
2022-10-03T03:58:37.032Z,96987.28
2022-10-03T04:01:24.041Z,96987.78
2022-10-03T04:04:05.695Z,96989.97
2022-10-03T04:06:48.047Z,96994.50
2022-10-03T04:09:20.776Z,96980.97
2022-10-03T04:12:29.708Z,97000.97
2022-10-03T04:14:56.151Z,96990.94
2022-10-03T04:18:20.384Z,97007.88
2022-10-03T04:21:12.095Z,97008.06
2022-10-03T04:23:44.063Z,97007.19
2022-10-03T04:26:37.811Z,97010.59
2022-10-03T04:29:11.737Z,97012.44
2022-10-03T04:31:46.880Z,97023.34
2022-10-03T04:34:39.891Z,97016.19
2022-10-03T04:37:20.711Z,97019.25
2022-10-03T04:40:14.852Z,97021.47
2022-10-03T04:42:58.340Z,97020.38
2022-10-03T04:45:56.556Z,97026.06
2022-10-03T04:48:50.968Z,97022.22
2022-10-03T04:51:37.596Z,97025.97
2022-10-03T04:54:07.157Z,97023.78
2022-10-03T04:57:01.848Z,97023.91
2022-10-03T04:59:39.291Z,97023.44
2022-10-03T05:02:45.443Z,97025.78
2022-10-03T05:05:32.971Z,97034.91
2022-10-03T05:08:18.088Z,97032.72
2022-10-03T05:11:12.493Z,97036.22
2022-10-03T05:13:57.247Z,97034.06
2022-10-03T05:16:36.014Z,97032.63
2022-10-03T05:19:24.443Z,97032.00
2022-10-03T05:21:59.419Z,97038.81
2022-10-03T05:24:53.502Z,97029.78
2022-10-03T05:27:34.264Z,97024.06
2022-10-03T05:30:25.524Z,97034.09
2022-10-03T05:33:07.651Z,97030.97
2022-10-03T05:35:40.790Z,97046.03
2022-10-03T05:38:44.569Z,97038.22
2022-10-03T05:41:16.904Z,97048.16
2022-10-03T05:43:58.237Z,97047.81
2022-10-03T05:46:55.337Z,97050.59
2022-10-03T05:49:49.130Z,97046.97
2022-10-03T05:52:24.534Z,97059.97
2022-10-03T05:54:53.972Z,97047.97
2022-10-03T05:57:41.849Z,97060.19
2022-10-03T06:00:18.402Z,97059.22
2022-10-03T06:03:22.754Z,97055.94
2022-10-03T06:06:14.758Z,97059.91
2022-10-03T06:08:51.374Z,97061.56
2022-10-03T06:11:17.894Z,97073.00
2022-10-03T06:14:03.231Z,97066.66
2022-10-03T06:16:38.399Z,97064.88
2022-10-03T06:19:21.840Z,97059.59
2022-10-03T06:22:18.900Z,97079.44
2022-10-03T06:25:09.549Z,97067.91
2022-10-03T06:28:20.564Z,97073.31
2022-10-03T06:31:15.040Z,97082.56
2022-10-03T06:34:01.354Z,97090.91
2022-10-03T06:36:37.628Z,97070.88
2022-10-03T06:40:04.088Z,97095.97
2022-10-03T06:43:09.868Z,97089.81
2022-10-03T06:45:36.276Z,97093.97
2022-10-03T06:48:34.846Z,97104.75
2022-10-03T06:51:07.128Z,97101.91
2022-10-03T06:54:12.264Z,97106.50
2022-10-03T06:57:03.133Z,97103.00
2022-10-03T06:59:36.113Z,97102.16
2022-10-03T07:02:23.648Z,97106.34
2022-10-03T07:05:40.953Z,97103.72
2022-10-03T07:09:01.732Z,97105.22
2022-10-03T07:11:46.855Z,97110.53
2022-10-03T07:14:35.295Z,97107.59
2022-10-03T07:17:10.879Z,97107.22
2022-10-03T07:19:46.536Z,97111.78
2022-10-03T07:22:28.379Z,97125.50
2022-10-03T07:25:13.564Z,97128.41
2022-10-03T07:27:52.306Z,97130.53
2022-10-03T07:30:24.235Z,97121.97
2022-10-03T07:33:24.334Z,97151.97
2022-10-03T07:36:30.472Z,97144.53
2022-10-03T07:39:26.070Z,97141.13
2022-10-03T07:41:52.741Z,97145.97
2022-10-03T07:44:31.318Z,97142.19
2022-10-03T07:47:19.806Z,97151.69
2022-10-03T07:50:17.034Z,97150.13
2022-10-03T07:53:21.145Z,97152.69
2022-10-03T07:56:09.680Z,97163.28
2022-10-03T07:58:58.119Z,97162.66
2022-10-03T08:01:46.269Z,97163.72
2022-10-03T08:04:37.463Z,97161.59
2022-10-03T08:07:19.059Z,97165.13
2022-10-03T08:09:55.336Z,97168.75
2022-10-03T08:13:02.541Z,97159.41
2022-10-03T08:15:57.026Z,97165.00
2022-10-03T08:18:36.277Z,97172.03
2022-10-03T08:21:18.584Z,97172.13
2022-10-03T08:24:00.390Z,97168.22
2022-10-03T08:26:48.589Z,97170.41
2022-10-03T08:29:31.745Z,97173.69
2022-10-03T08:32:22.216Z,97179.13
2022-10-03T08:35:07.109Z,97184.06
2022-10-03T08:38:03.300Z,97179.41
2022-10-03T08:40:41.924Z,97181.13
2022-10-03T08:43:30.276Z,97178.47
2022-10-03T08:46:31.866Z,97194.84
2022-10-03T08:49:10.834Z,97185.56
2022-10-03T08:51:56.057Z,97188.06
2022-10-03T08:54:37.636Z,97179.53
2022-10-03T08:57:10.053Z,97196.22
2022-10-03T08:59:55.204Z,97189.34
2022-10-03T09:02:43.037Z,97188.00
2022-10-03T09:05:41.415Z,97191.22
2022-10-03T09:08:38.627Z,97181.19
2022-10-03T09:11:17.199Z,97187.91
2022-10-03T09:13:52.687Z,97195.34
2022-10-03T09:16:37.674Z,97192.69
2022-10-03T09:19:07.561Z,97194.66
2022-10-03T09:22:02.098Z,97200.75
2022-10-03T09:25:06.375Z,97187.41
2022-10-03T09:27:51.759Z,97185.09
2022-10-03T09:30:44.166Z,97187.97
2022-10-03T09:33:48.318Z,97186.72
2022-10-03T09:36:20.792Z,97187.63
2022-10-03T09:39:08.934Z,97188.91
2022-10-03T09:41:54.347Z,97184.59
2022-10-03T09:45:02.542Z,97187.75
2022-10-03T09:51:00.782Z,97193.06
2022-10-03T09:53:37.970Z,97182.31
2022-10-03T09:56:22.593Z,97192.34
2022-10-03T09:59:07.983Z,97194.31
2022-10-03T10:01:59.924Z,97189.47
2022-10-03T10:05:11.373Z,97187.72
2022-10-03T10:08:20.267Z,97180.34
2022-10-03T10:11:47.589Z,97180.09
2022-10-03T10:14:42.970Z,97166.72
2022-10-03T10:17:47.356Z,97170.84
2022-10-03T10:20:22.883Z,97175.19
2022-10-03T10:23:04.536Z,97175.56
2022-10-03T10:25:52.289Z,97170.41
2022-10-03T10:28:19.545Z,97182.13
2022-10-03T10:30:57.031Z,97165.44
2022-10-03T10:33:27.377Z,97175.47
2022-10-03T10:36:55.429Z,97164.03
2022-10-03T10:39:54.237Z,97157.84
2022-10-03T10:42:45.774Z,97160.72
2022-10-03T10:45:35.956Z,97181.38
2022-10-03T10:48:08.334Z,97181.00
2022-10-03T10:50:55.544Z,97180.94
2022-10-03T10:53:59.196Z,97175.97
2022-10-03T10:56:47.865Z,97177.19
2022-10-03T10:59:23.302Z,97179.56
2022-10-03T11:02:11.789Z,97179.59
2022-10-03T11:04:47.299Z,97178.84
2022-10-03T11:08:04.269Z,97182.63
2022-10-03T11:10:36.518Z,97177.25
2022-10-03T11:13:41.252Z,97184.72
2022-10-03T11:16:45.907Z,97172.47
2022-10-03T11:19:28.162Z,97185.75
2022-10-03T11:22:19.166Z,97178.25
2022-10-03T11:25:16.665Z,97180.59
2022-10-03T11:28:32.786Z,97173.19
2022-10-03T11:31:30.389Z,97181.56
2022-10-03T11:34:05.887Z,97179.19
2022-10-03T11:36:53.710Z,97175.00
2022-10-03T11:39:42.153Z,97176.81
2022-10-03T11:42:22.937Z,97174.53
2022-10-03T11:45:06.042Z,97171.41
2022-10-03T11:47:59.619Z,97168.25
2022-10-03T11:50:45.047Z,97163.19
2022-10-03T11:53:31.743Z,97159.66
2022-10-03T11:56:13.334Z,97163.78
2022-10-03T11:59:01.415Z,97168.00
2022-10-03T12:01:52.056Z,97171.13
2022-10-03T12:04:40.443Z,97167.69
2022-10-03T12:07:47.654Z,97167.88
2022-10-03T12:10:34.631Z,97168.25
2022-10-03T12:13:09.290Z,97168.50
2022-10-03T12:15:47.895Z,97166.47
2022-10-03T12:18:34.310Z,97160.94
2022-10-03T12:21:30.677Z,97166.91
2022-10-03T12:24:05.505Z,97157.31
2022-10-03T12:27:03.126Z,97165.50
2022-10-03T12:29:34.116Z,97168.16
2022-10-03T12:32:27.182Z,97159.16
2022-10-03T12:35:01.109Z,97161.50
2022-10-03T12:37:36.742Z,97164.56
2022-10-03T12:40:27.635Z,97168.16
2022-10-03T12:43:36.157Z,97163.53
2022-10-03T12:46:11.135Z,97155.34
2022-10-03T12:48:46.759Z,97159.97
2022-10-03T12:51:20.657Z,97162.09
2022-10-03T12:54:01.242Z,97160.59
2022-10-03T12:56:42.815Z,97150.94
2022-10-03T12:59:21.028Z,97158.69
2022-10-03T13:02:03.050Z,97159.91
2022-10-03T13:04:32.729Z,97158.38
2022-10-03T13:07:24.662Z,97152.69
2022-10-03T13:10:03.372Z,97154.94
2022-10-03T13:12:40.996Z,97150.97
2022-10-03T13:15:19.815Z,97154.78
2022-10-03T13:18:18.474Z,97158.66
2022-10-03T13:21:41.103Z,97149.84
2022-10-03T13:24:21.304Z,97153.94
2022-10-03T13:27:04.390Z,97139.94
2022-10-03T13:29:48.738Z,97148.81
2022-10-03T13:32:29.487Z,97147.88
2022-10-03T13:35:33.950Z,97135.91
2022-10-03T13:38:13.002Z,97138.78
2022-10-03T13:40:56.213Z,97129.16
2022-10-03T13:43:38.591Z,97137.47
2022-10-03T13:46:27.222Z,97131.25
2022-10-03T13:49:02.144Z,97129.53
2022-10-03T13:51:41.741Z,97133.13
2022-10-03T14:01:52.891Z,97111.50
2022-10-03T14:04:56.135Z,97114.44
2022-10-03T14:07:47.988Z,97113.69
2022-10-03T14:10:27.268Z,97112.59
2022-10-03T14:13:18.026Z,97112.25
2022-10-03T14:16:23.431Z,97113.97
2022-10-03T14:19:21.263Z,97118.28
2022-10-03T14:22:03.016Z,97107.78
2022-10-03T14:24:47.829Z,97107.53
2022-10-03T14:27:42.336Z,97110.03
2022-10-03T14:30:19.121Z,97109.31
2022-10-03T14:33:12.144Z,97105.44
2022-10-03T14:35:39.205Z,97103.56
2022-10-03T14:38:46.453Z,97102.06
2022-10-03T14:41:22.555Z,97105.47
2022-10-03T14:44:00.396Z,97106.84
2022-10-03T14:46:31.718Z,97105.22
2022-10-03T14:49:03.559Z,97108.91
2022-10-03T14:51:36.933Z,97112.47
2022-10-03T14:54:08.624Z,97112.59
2022-10-03T14:56:43.290Z,97117.38
2022-10-03T14:59:18.122Z,97117.28
2022-10-03T15:01:54.690Z,97114.13
2022-10-03T15:04:31.164Z,97110.31
2022-10-03T15:07:01.025Z,97116.28
2022-10-03T15:09:42.594Z,97120.59
2022-10-03T15:12:15.106Z,97111.91
2022-10-03T15:14:45.805Z,97097.09
2022-10-03T15:17:21.005Z,97112.44
2022-10-03T15:19:55.089Z,97110.25
2022-10-03T15:22:33.086Z,97110.63
2022-10-03T15:25:19.832Z,97107.75
2022-10-03T15:27:50.654Z,97109.41
2022-10-03T15:30:31.597Z,97103.56
2022-10-03T15:33:33.687Z,97116.13
2022-10-03T15:36:05.781Z,97112.44
2022-10-03T15:38:38.066Z,97113.97
2022-10-03T15:41:17.445Z,97114.06
2022-10-03T15:43:49.865Z,97121.00
2022-10-03T15:46:45.070Z,97116.09
2022-10-03T15:49:26.848Z,97115.44
2022-10-03T15:51:55.376Z,97111.31
2022-10-03T15:54:25.333Z,97103.59
2022-10-03T15:56:58.700Z,97109.69
2022-10-03T15:59:34.554Z,97113.72
2022-10-03T16:02:15.467Z,97114.25
2022-10-03T16:04:46.127Z,97108.53
2022-10-03T16:07:35.789Z,97108.78
2022-10-03T16:10:25.578Z,97101.34
2022-10-03T16:13:21.341Z,97116.28
2022-10-03T16:15:56.757Z,97111.50
2022-10-03T16:18:50.981Z,97110.13
2022-10-03T16:21:44.356Z,97109.94
2022-10-03T16:24:22.476Z,97106.16
2022-10-03T16:26:58.656Z,97116.25
2022-10-03T16:29:30.552Z,97116.72
2022-10-03T16:32:23.151Z,97114.22
2022-10-03T16:34:50.494Z,97117.00
2022-10-03T16:37:24.096Z,97121.00
2022-10-03T16:40:07.061Z,97115.94
2022-10-03T16:42:44.087Z,97114.63
2022-10-03T16:45:33.173Z,97127.34
2022-10-03T16:48:28.619Z,97107.94
2022-10-03T16:50:56.498Z,97113.13
2022-10-03T16:53:24.324Z,97116.66
2022-10-03T16:55:59.891Z,97112.94
2022-10-03T16:58:30.968Z,97108.09
2022-10-03T17:01:15.344Z,97119.25
2022-10-03T17:03:48.427Z,97120.56
2022-10-03T17:06:21.068Z,97125.09
2022-10-03T17:08:53.495Z,97122.56
2022-10-03T17:11:26.184Z,97119.56
2022-10-03T17:13:54.871Z,97117.56
2022-10-03T17:16:24.231Z,97123.50
2022-10-03T17:19:02.772Z,97124.84
2022-10-03T17:21:32.635Z,97124.94
2022-10-03T17:24:10.336Z,97129.88
2022-10-03T17:26:43.799Z,97134.94
2022-10-03T17:29:35.580Z,97131.38
2022-10-03T17:32:13.027Z,97131.28
2022-10-03T17:34:53.195Z,97137.50
2022-10-03T17:37:22.634Z,97129.88
2022-10-03T17:40:05.293Z,97122.72
2022-10-03T17:42:43.097Z,97129.63
2022-10-03T17:45:35.091Z,97134.97
2022-10-03T17:48:22.778Z,97138.53
2022-10-03T17:51:03.303Z,97122.03
2022-10-03T17:53:33.630Z,97130.75
2022-10-03T17:56:10.586Z,97129.59
2022-10-03T17:58:44.157Z,97116.97
2022-10-03T18:01:15.400Z,97129.97
2022-10-03T18:03:41.862Z,97135.09
2022-10-03T18:06:20.621Z,97132.97
2022-10-03T18:08:50.916Z,97124.91
2022-10-03T18:11:23.354Z,97125.88
2022-10-03T18:14:22.385Z,97128.25
2022-10-03T18:17:00.963Z,97119.59
2022-10-03T18:19:39.876Z,97124.72
2022-10-03T18:22:20.415Z,97134.03
2022-10-03T18:25:22.008Z,97129.06
2022-10-03T18:27:52.365Z,97132.97
2022-10-03T18:30:24.469Z,97127.72
2022-10-03T18:32:53.414Z,97121.53
2022-10-03T18:35:29.799Z,97122.47
2022-10-03T18:38:06.132Z,97135.34
2022-10-03T18:40:43.321Z,97135.97
2022-10-03T18:43:25.051Z,97128.72
2022-10-03T18:45:56.631Z,97129.94
2022-10-03T18:48:34.199Z,97126.53
2022-10-03T18:51:09.290Z,97126.09
2022-10-03T18:53:41.202Z,97123.78
2022-10-03T18:56:19.839Z,97121.16
2022-10-03T18:59:03.768Z,97124.06
2022-10-03T19:01:52.707Z,97124.84
2022-10-03T19:04:35.415Z,97128.56
2022-10-03T19:07:10.189Z,97121.59
2022-10-03T19:09:43.850Z,97124.38
2022-10-03T19:12:10.376Z,97124.50
2022-10-03T19:15:01.539Z,97122.94
2022-10-03T19:17:40.406Z,97119.66
2022-10-03T19:20:28.512Z,97128.81
2022-10-03T19:23:07.077Z,97119.03
2022-10-03T19:25:37.416Z,97115.63
2022-10-03T19:28:30.129Z,97115.19
2022-10-03T19:31:07.609Z,97117.03
2022-10-03T19:33:43.728Z,97123.38
2022-10-03T19:36:22.494Z,97121.84
2022-10-03T19:38:50.007Z,97115.38
2022-10-03T19:41:26.584Z,97115.94
2022-10-03T19:43:54.485Z,97119.81
2022-10-03T19:46:33.217Z,97120.56
2022-10-03T19:49:32.985Z,97125.84
2022-10-03T19:52:19.718Z,97122.13
2022-10-03T19:54:53.704Z,97116.53
2022-10-03T19:57:43.503Z,97121.34
2022-10-03T20:00:16.057Z,97124.31
2022-10-03T20:02:44.334Z,97119.38
2022-10-03T20:05:19.539Z,97119.03
2022-10-03T20:07:52.013Z,97117.50
2022-10-03T20:10:45.502Z,97121.22
2022-10-03T20:13:12.444Z,97115.66
2022-10-03T20:15:46.368Z,97118.63
2022-10-03T20:18:31.448Z,97116.78
2022-10-03T20:20:58.976Z,97114.19
2022-10-03T20:23:28.745Z,97116.34
2022-10-03T20:26:03.156Z,97122.56
2022-10-03T20:28:53.308Z,97122.72
2022-10-03T20:31:25.851Z,97125.22
2022-10-03T20:33:54.358Z,97125.41
2022-10-03T20:36:33.803Z,97127.09
2022-10-03T20:39:13.275Z,97126.19
2022-10-03T20:41:53.117Z,97130.19
2022-10-03T20:45:07.098Z,97131.59
2022-10-03T20:47:48.465Z,97132.22
2022-10-03T20:50:24.100Z,97126.66
2022-10-03T20:52:54.326Z,97117.06
2022-10-03T20:55:27.853Z,97116.00
2022-10-03T20:58:00.106Z,97117.38
2022-10-03T21:00:26.821Z,97105.00
2022-10-03T21:02:59.169Z,97111.34
2022-10-03T21:05:34.209Z,97109.34
2022-10-03T21:08:04.392Z,97111.66
2022-10-03T21:10:40.573Z,97107.31
2022-10-03T21:13:13.215Z,97103.63
2022-10-03T21:15:47.181Z,97105.31
2022-10-03T21:18:26.206Z,97103.63
2022-10-03T21:21:01.920Z,97097.13
2022-10-03T21:23:30.241Z,97095.44
2022-10-03T21:26:01.158Z,97089.41
2022-10-03T21:28:32.226Z,97105.63
2022-10-03T21:31:19.000Z,97093.09
2022-10-03T21:34:01.100Z,97098.66
2022-10-03T21:36:48.994Z,97108.25
2022-10-03T21:39:24.813Z,97097.56
2022-10-03T21:42:25.544Z,97097.25
2022-10-03T21:45:18.237Z,97087.50
2022-10-03T21:47:50.811Z,97084.84
2022-10-03T21:50:23.804Z,97079.88
2022-10-03T21:52:59.039Z,97087.00
2022-10-03T21:55:52.712Z,97089.31
2022-10-03T21:58:45.233Z,97086.84
2022-10-03T22:01:24.697Z,97080.63
2022-10-03T22:04:17.455Z,97077.69
2022-10-03T22:07:02.721Z,97071.31
2022-10-03T22:09:29.268Z,97070.88
2022-10-03T22:11:59.362Z,97067.47
2022-10-03T22:18:21.517Z,97068.22
2022-10-03T22:21:00.307Z,97065.41
2022-10-03T22:23:38.745Z,97066.19
2022-10-03T22:26:11.242Z,97065.72
2022-10-03T22:28:46.890Z,97065.56
2022-10-03T22:31:19.526Z,97064.47
2022-10-03T22:33:55.412Z,97062.63
2022-10-03T22:36:22.371Z,97060.00
2022-10-03T22:38:51.470Z,97057.38
2022-10-03T22:41:25.317Z,97049.19
2022-10-03T22:43:55.120Z,97045.16
2022-10-03T22:46:27.419Z,97047.03
2022-10-03T22:49:02.781Z,97036.66
2022-10-03T22:51:29.967Z,97039.56
2022-10-03T22:54:07.260Z,97044.34
2022-10-03T22:56:45.438Z,97031.84
2022-10-03T22:59:27.287Z,97027.66
2022-10-03T23:01:58.275Z,97030.13
2022-10-03T23:04:51.528Z,97023.91
2022-10-03T23:07:41.066Z,97030.56
2022-10-03T23:10:13.374Z,97021.44
2022-10-03T23:12:44.536Z,97012.63
2022-10-03T23:15:15.928Z,97021.09
2022-10-03T23:18:13.259Z,97016.75
2022-10-03T23:20:53.597Z,97022.44
2022-10-03T23:23:40.611Z,97019.34
2022-10-03T23:26:47.101Z,97032.31
2022-10-03T23:29:17.894Z,97030.28
2022-10-03T23:31:59.693Z,97032.13
2022-10-03T23:34:35.439Z,97034.56
2022-10-03T23:37:13.836Z,97038.91
2022-10-03T23:39:55.614Z,97039.16
2022-10-03T23:42:31.272Z,97044.25
2022-10-03T23:45:10.465Z,97042.69
2022-10-03T23:47:45.224Z,97043.34
2022-10-03T23:50:18.975Z,97044.47
2022-10-03T23:52:58.499Z,97038.63
2022-10-03T23:55:29.911Z,97036.16
2022-10-03T23:57:56.878Z,97033.25
